Time;durP1;ratioP1;P1;durP2;ratioP2;P2;SDS_P1;SDS_P2;PMS_P1;PMS_P2;Temp;Humidity;BMP_temperature;BMP_pressure;BME280_temperature;BME280_humidity;BME280_pressure;Samples;Min_cycle;Max_cycle;Signal;HPM_P1;HPM_P2
2023/04/13 00:02:24;;;;;;;8.00;6.53;;;;;;;;;;6275458;22;20011;-67
2023/04/13 00:04:53;;;;;;;9.38;6.88;;;;;;;;;;6275790;22;20022;-68
2023/04/13 00:07:21;;;;;;;8.30;6.65;;;;;;;;;;6275809;22;20061;-68
2023/04/13 00:09:49;;;;;;;9.60;6.75;;;;;;;;;;6275645;22;20051;-67
2023/04/13 00:12:20;;;;;;;9.60;6.80;;;;;;;;;;6248919;22;20074;-67
2023/04/13 00:14:49;;;;;;;8.43;6.40;;;;;;;;;;6276048;22;20016;-67
2023/04/13 00:17:17;;;;;;;9.57;7.10;;;;;;;;;;6275687;22;20035;-67
2023/04/13 00:19:46;;;;;;;8.35;6.60;;;;;;;;;;6275494;22;20027;-67
2023/04/13 00:22:14;;;;;;;8.80;7.22;;;;;;;;;;6275633;22;20016;-67
2023/04/13 00:24:42;;;;;;;8.13;6.30;;;;;;;;;;6275752;22;20081;-67
2023/04/13 00:27:10;;;;;;;9.73;7.13;;;;;;;;;;6275537;22;20012;-67
2023/04/13 00:29:38;;;;;;;8.98;7.43;;;;;;;;;;6275768;22;20094;-68
2023/04/13 00:32:06;;;;;;;10.30;7.70;;;;;;;;;;6248743;22;20511;-68
2023/04/13 00:34:33;;;;;;;10.40;7.22;;;;;;;;;;6248472;22;20026;-68
2023/04/13 00:37:02;;;;;;;8.93;6.78;;;;;;;;;;6248461;22;20026;-68
2023/04/13 00:39:30;;;;;;;8.35;6.65;;;;;;;;;;6248290;22;20024;-68
2023/04/13 00:42:02;;;;;;;10.25;6.80;;;;;;;;;;6248597;22;20526;-68
2023/04/13 00:44:30;;;;;;;9.75;7.05;;;;;;;;;;6275641;22;20446;-68
2023/04/13 00:46:57;;;;;;;9.32;7.20;;;;;;;;;;6248738;22;20020;-68
2023/04/13 00:49:24;;;;;;;9.07;7.20;;;;;;;;;;6275942;22;20046;-68
2023/04/13 00:51:52;;;;;;;8.65;6.80;;;;;;;;;;6248538;22;20020;-67
2023/04/13 00:54:21;;;;;;;8.52;6.63;;;;;;;;;;6248501;22;20023;-68
2023/04/13 00:56:49;;;;;;;10.25;7.03;;;;;;;;;;6248454;22;20016;-68
2023/04/13 00:59:17;;;;;;;9.70;6.93;;;;;;;;;;6248420;22;20094;-68
2023/04/13 01:01:45;;;;;;;8.85;6.85;;;;;;;;;;6248522;22;20085;-68
2023/04/13 01:04:13;;;;;;;8.90;6.90;;;;;;;;;;6275471;22;20047;-68
2023/04/13 01:06:48;;;;;;;8.90;6.90;;;;;;;;;;6275724;22;20330;-67
2023/04/13 01:09:23;;;;;;;11.05;7.30;;;;;;;;;;6249812;22;20024;-68
2023/04/13 01:12:10;;;;;;;10.88;7.38;;;;;;;;;;6256535;22;20446;-68
2023/04/13 01:14:41;;;;;;;9.65;7.15;;;;;;;;;;6278585;22;20019;-67
2023/04/13 01:17:20;;;;;;;11.05;6.95;;;;;;;;;;6250451;22;20016;-68
2023/04/13 01:19:57;;;;;;;9.00;6.85;;;;;;;;;;6250202;22;20024;-68
2023/04/13 01:22:29;;;;;;;11.02;6.53;;;;;;;;;;6250203;22;20024;-68
2023/04/13 01:25:06;;;;;;;9.13;6.88;;;;;;;;;;6277419;22;20012;-68
2023/04/13 01:27:33;;;;;;;9.82;6.93;;;;;;;;;;6250246;22;20016;-68
2023/04/13 01:30:01;;;;;;;9.73;7.40;;;;;;;;;;6250235;22;20011;-68
2023/04/13 01:32:29;;;;;;;10.30;7.20;;;;;;;;;;6225181;22;20023;-68
2023/04/13 01:34:57;;;;;;;10.05;7.43;;;;;;;;;;6249973;22;20338;-68
2023/04/13 01:37:24;;;;;;;10.05;6.80;;;;;;;;;;6249958;22;20477;-68
2023/04/13 01:39:54;;;;;;;9.38;6.93;;;;;;;;;;6250205;22;20023;-67
2023/04/13 01:42:27;;;;;;;9.60;6.70;;;;;;;;;;6250118;22;20397;-68
2023/04/13 01:44:55;;;;;;;10.18;7.60;;;;;;;;;;6250076;22;20490;-68
2023/04/13 01:47:24;;;;;;;8.85;6.72;;;;;;;;;;6250042;22;20065;-68
2023/04/13 01:50:25;;;;;;;9.15;6.45;;;;;;;;;;6249184;22;20019;-67
2023/04/13 01:53:20;;;;;;;9.05;6.65;;;;;;;;;;6249948;22;20019;-67
2023/04/13 01:55:48;;;;;;;8.60;6.40;;;;;;;;;;6276877;22;20015;-68
2023/04/13 01:58:18;;;;;;;9.73;6.78;;;;;;;;;;6249780;22;20019;-68
2023/04/13 02:00:55;;;;;;;9.05;6.07;;;;;;;;;;6249950;22;20024;-68
2023/04/13 02:03:23;;;;;;;10.57;6.45;;;;;;;;;;6249733;22;20094;-68
2023/04/13 02:05:50;;;;;;;8.52;6.35;;;;;;;;;;6276848;22;20039;-68
2023/04/13 02:08:19;;;;;;;7.85;5.65;;;;;;;;;;6250198;22;20020;-68
2023/04/13 02:10:47;;;;;;;11.02;6.18;;;;;;;;;;6249923;22;20023;-68
2023/04/13 02:13:15;;;;;;;8.38;6.18;;;;;;;;;;6250108;22;20437;-68
2023/04/13 02:15:43;;;;;;;9.02;6.50;;;;;;;;;;6277277;22;20039;-67
2023/04/13 02:18:12;;;;;;;7.47;5.60;;;;;;;;;;6276613;22;20011;-67
2023/04/13 02:20:44;;;;;;;9.30;6.25;;;;;;;;;;6249391;22;20446;-68
2023/04/13 02:23:13;;;;;;;8.05;6.03;;;;;;;;;;6249613;22;20327;-68
2023/04/13 02:25:45;;;;;;;9.65;6.25;;;;;;;;;;6249413;22;20019;-67
2023/04/13 02:28:16;;;;;;;9.48;6.63;;;;;;;;;;6249457;22;20020;-67
2023/04/13 02:30:45;;;;;;;12.55;8.02;;;;;;;;;;6249609;22;20024;-67
2023/04/13 02:33:13;;;;;;;11.85;8.10;;;;;;;;;;6277060;22;20042;-68
2023/04/13 02:35:42;;;;;;;11.02;7.72;;;;;;;;;;6249853;22;20020;-68
2023/04/13 02:38:10;;;;;;;13.30;7.15;;;;;;;;;;6249571;22;20390;-68
2023/04/13 02:40:42;;;;;;;10.57;7.57;;;;;;;;;;6249296;22;20058;-67
2023/04/13 02:43:11;;;;;;;9.07;6.10;;;;;;;;;;6249283;22;20349;-68
2023/04/13 02:45:40;;;;;;;8.52;5.95;;;;;;;;;;6249548;22;20019;-67
2023/04/13 02:48:11;;;;;;;10.13;6.03;;;;;;;;;;6249226;22;20048;-67
2023/04/13 03:57:26;;;;;;;12.43;6.75;;;;;;;;;;5154060;22;20117;-65
2023/04/13 03:59:56;;;;;;;13.30;6.60;;;;;;;;;;5129669;28;20126;-66
2023/04/13 04:02:42;;;;;;;9.52;6.20;;;;;;;;;;5129629;28;20061;-67
2023/04/13 04:05:16;;;;;;;8.65;6.15;;;;;;;;;;5114840;28;20541;-67
2023/04/13 04:07:47;;;;;;;8.65;5.43;;;;;;;;;;5125931;28;20093;-66
2023/04/13 04:10:16;;;;;;;10.70;5.05;;;;;;;;;;5092152;28;20492;-67
2023/04/13 04:12:44;;;;;;;8.27;5.38;;;;;;;;;;5091909;28;20043;-67
2023/04/13 04:15:12;;;;;;;9.13;5.10;;;;;;;;;;5091724;28;20040;-67
2023/04/13 04:17:45;;;;;;;10.43;5.72;;;;;;;;;;5091764;28;20047;-67
2023/04/13 04:20:13;;;;;;;8.13;5.43;;;;;;;;;;5091677;28;20048;-66
2023/04/13 04:22:43;;;;;;;8.85;6.20;;;;;;;;;;5091660;28;20038;-66
2023/04/13 04:25:11;;;;;;;11.60;5.90;;;;;;;;;;5091603;28;20079;-66
2023/04/13 04:27:40;;;;;;;9.77;6.25;;;;;;;;;;5107943;28;20093;-65
2023/04/13 04:30:09;;;;;;;8.20;5.93;;;;;;;;;;5090964;28;20070;-65
2023/04/13 04:32:39;;;;;;;9.90;5.82;;;;;;;;;;5123537;28;20117;-65
2023/04/13 04:35:13;;;;;;;9.75;5.93;;;;;;;;;;5124664;28;20047;-65
2023/04/13 04:37:49;;;;;;;11.20;5.95;;;;;;;;;;5124739;28;20527;-65
2023/04/13 04:40:18;;;;;;;10.77;5.40;;;;;;;;;;5090767;28;20044;-66
2023/04/13 04:42:46;;;;;;;13.98;6.05;;;;;;;;;;5090854;28;20032;-67
2023/04/13 04:45:26;;;;;;;11.85;6.03;;;;;;;;;;5091011;28;20051;-67
2023/04/13 04:47:56;;;;;;;13.20;6.35;;;;;;;;;;5075200;28;20047;-67
2023/04/13 04:50:25;;;;;;;11.73;6.25;;;;;;;;;;5091118;28;20082;-67
2023/04/13 04:53:06;;;;;;;7.75;5.53;;;;;;;;;;5091177;28;20043;-67
2023/04/13 04:55:34;;;;;;;16.27;6.88;;;;;;;;;;5090802;28;20071;-66
2023/04/13 04:58:02;;;;;;;12.45;6.97;;;;;;;;;;5077328;28;20619;-67
2023/04/13 05:00:31;;;;;;;13.35;6.60;;;;;;;;;;5076764;28;20165;-66
2023/04/13 05:03:12;;;;;;;12.45;6.68;;;;;;;;;;5075569;28;20131;-66
2023/04/13 05:05:45;;;;;;;7.88;5.50;;;;;;;;;;5110736;28;20422;-67
2023/04/13 05:08:19;;;;;;;10.43;6.32;;;;;;;;;;5077017;28;20040;-67
2023/04/13 05:10:49;;;;;;;8.65;5.65;;;;;;;;;;5111470;28;20048;-66
2023/04/13 05:13:18;;;;;;;10.48;6.47;;;;;;;;;;5077219;28;20055;-66
2023/04/13 05:15:56;;;;;;;11.38;7.40;;;;;;;;;;5092364;28;20051;-67
2023/04/13 05:18:24;;;;;;;13.70;7.10;;;;;;;;;;5110973;28;20044;-66
2023/04/13 05:20:52;;;;;;;10.18;5.50;;;;;;;;;;5077120;28;20040;-66
2023/04/13 05:23:20;;;;;;;8.25;4.80;;;;;;;;;;5076980;28;20055;-67
2023/04/13 05:25:54;;;;;;;6.57;3.95;;;;;;;;;;5077078;28;20037;-67
2023/04/13 05:28:21;;;;;;;7.32;4.68;;;;;;;;;;5076960;28;20570;-67
2023/04/13 05:30:50;;;;;;;8.35;5.43;;;;;;;;;;5076900;28;20135;-67
2023/04/13 05:33:19;;;;;;;7.88;4.57;;;;;;;;;;5110648;28;20055;-67
2023/04/13 05:35:52;;;;;;;7.00;4.72;;;;;;;;;;5092794;28;20040;-67
2023/04/13 05:38:20;;;;;;;5.90;4.10;;;;;;;;;;5076647;28;20040;-68
2023/04/13 05:40:47;;;;;;;4.88;3.42;;;;;;;;;;5094710;28;20068;-67
2023/04/13 05:43:15;;;;;;;5.03;3.53;;;;;;;;;;5076620;28;20066;-68
2023/04/13 05:45:48;;;;;;;9.25;4.00;;;;;;;;;;5076552;28;20087;-68
2023/04/13 05:48:15;;;;;;;4.72;3.53;;;;;;;;;;5076854;28;20068;-68
2023/04/13 05:50:45;;;;;;;9.43;3.20;;;;;;;;;;5076342;28;20145;-68
2023/04/13 05:53:13;;;;;;;5.80;3.60;;;;;;;;;;5094532;28;20067;-68
2023/04/13 05:55:47;;;;;;;5.65;3.20;;;;;;;;;;5072769;28;20044;-68
2023/04/13 05:58:17;;;;;;;4.05;2.90;;;;;;;;;;5073056;28;20067;-68
2023/04/13 06:00:46;;;;;;;8.15;3.65;;;;;;;;;;5072974;28;20041;-67
2023/04/13 06:03:21;;;;;;;;;;;;;;;;;;5073382;28;20040;-68
2023/04/13 06:05:48;;;;;;;4.45;3.72;;;;;;;;;;5072846;28;19920;-67
2023/04/13 06:08:16;;;;;;;4.22;3.33;;;;;;;;;;5071878;28;20405;-67
2023/04/13 06:10:44;;;;;;;5.40;3.40;;;;;;;;;;5072809;28;20046;-68
2023/04/13 06:13:12;;;;;;;5.25;3.90;;;;;;;;;;5072708;28;20351;-68
2023/04/13 06:15:39;;;;;;;6.72;4.03;;;;;;;;;;5072536;28;20486;-67
2023/04/13 06:18:07;;;;;;;4.93;3.55;;;;;;;;;;5072493;28;20059;-68
2023/04/13 06:20:34;;;;;;;6.40;3.95;;;;;;;;;;5072567;28;20051;-68
2023/04/13 06:23:02;;;;;;;3.72;3.15;;;;;;;;;;5072474;28;20052;-68
2023/04/13 06:25:30;;;;;;;7.20;3.47;;;;;;;;;;5072588;28;20052;-68
2023/04/13 06:28:01;;;;;;;4.10;3.38;;;;;;;;;;5072512;28;20514;-68
2023/04/13 06:30:30;;;;;;;4.70;3.45;;;;;;;;;;5072370;28;20051;-68
2023/04/13 06:33:03;;;;;;;5.20;3.30;;;;;;;;;;5072387;28;20040;-68
2023/04/13 06:35:32;;;;;;;4.85;3.17;;;;;;;;;;5072275;28;20043;-67
2023/04/13 06:38:00;;;;;;;4.38;3.10;;;;;;;;;;5072293;28;20086;-67
2023/04/13 06:40:37;;;;;;;4.57;3.08;;;;;;;;;;5072112;28;20040;-67
2023/04/13 06:43:07;;;;;;;3.70;3.10;;;;;;;;;;5106098;28;20044;-67
2023/04/13 06:45:57;;;;;;;5.00;3.30;;;;;;;;;;5072064;28;20067;-67
2023/04/13 06:48:27;;;;;;;4.70;3.40;;;;;;;;;;5071956;28;20044;-67
2023/04/13 06:50:58;;;;;;;4.93;3.22;;;;;;;;;;5071829;28;20462;-66
2023/04/13 06:53:27;;;;;;;8.60;3.92;;;;;;;;;;5071879;28;20379;-67
2023/04/13 06:55:56;;;;;;;5.63;3.30;;;;;;;;;;5080601;28;20044;-67
2023/04/13 06:58:24;;;;;;;5.82;3.10;;;;;;;;;;5075122;28;20074;-66
2023/04/13 07:00:51;;;;;;;4.57;3.25;;;;;;;;;;5074993;28;20105;-66
2023/04/13 07:03:19;;;;;;;5.10;3.22;;;;;;;;;;5093343;28;20472;-67
2023/04/13 07:05:47;;;;;;;3.75;3.10;;;;;;;;;;5075080;28;20063;-67
2023/04/13 07:08:18;;;;;;;4.68;2.88;;;;;;;;;;5093417;28;20139;-67
2023/04/13 07:10:52;;;;;;;5.05;3.10;;;;;;;;;;5093050;28;20520;-67
2023/04/13 07:13:30;;;;;;;4.15;3.40;;;;;;;;;;5089995;28;20423;-67
2023/04/13 07:16:00;;;;;;;6.50;3.55;;;;;;;;;;5108989;28;20089;-67
2023/04/13 07:18:28;;;;;;;7.53;4.32;;;;;;;;;;5108621;28;20040;-67
2023/04/13 07:20:55;;;;;;;6.28;3.38;;;;;;;;;;5092808;28;20086;-67
2023/04/13 07:23:28;;;;;;;6.30;3.37;;;;;;;;;;5074872;28;20067;-67
2023/04/13 07:25:57;;;;;;;4.82;3.17;;;;;;;;;;5091388;28;20527;-68
2023/04/13 07:28:26;;;;;;;5.15;3.25;;;;;;;;;;5074753;28;20082;-68
2023/04/13 07:30:56;;;;;;;4.20;2.80;;;;;;;;;;5074862;28;20048;-67
2023/04/13 07:33:23;;;;;;;4.95;3.05;;;;;;;;;;5107989;28;20550;-67
2023/04/13 07:35:54;;;;;;;5.90;3.10;;;;;;;;;;5073704;28;20084;-67
2023/04/13 07:38:25;;;;;;;5.82;2.90;;;;;;;;;;5073797;28;20044;-67
2023/04/13 07:40:52;;;;;;;5.45;3.05;;;;;;;;;;5091825;28;20040;-68
2023/04/13 07:43:20;;;;;;;4.50;3.10;;;;;;;;;;5073610;28;20058;-68
2023/04/13 07:45:47;;;;;;;7.07;3.10;;;;;;;;;;5091938;28;20072;-68
2023/04/13 07:48:15;;;;;;;3.90;2.88;;;;;;;;;;5073819;28;20504;-68
2023/04/13 07:50:43;;;;;;;3.35;3.03;;;;;;;;;;5107672;28;20523;-68
2023/04/13 07:53:16;;;;;;;3.90;2.80;;;;;;;;;;5074097;28;20052;-67
2023/04/13 07:55:44;;;;;;;3.85;2.78;;;;;;;;;;5073548;28;20063;-67
2023/04/13 07:58:13;;;;;;;3.58;2.65;;;;;;;;;;5073878;28;20147;-67
2023/04/13 08:00:41;;;;;;;5.03;2.88;;;;;;;;;;5073803;28;20052;-67
2023/04/13 08:03:08;;;;;;;4.18;3.00;;;;;;;;;;5073881;28;20044;-67
2023/04/13 08:05:37;;;;;;;4.68;3.30;;;;;;;;;;5108406;28;20051;-67
2023/04/13 08:08:04;;;;;;;4.03;2.90;;;;;;;;;;5092491;28;20047;-68
2023/04/13 08:10:32;;;;;;;4.60;2.80;;;;;;;;;;5091186;28;20036;-68
2023/04/13 08:13:03;;;;;;;4.60;3.00;;;;;;;;;;5074518;28;20101;-68
2023/04/13 08:15:31;;;;;;;4.47;2.88;;;;;;;;;;5074521;28;20137;-67
2023/04/13 08:18:02;;;;;;;4.18;2.78;;;;;;;;;;5074600;28;20151;-68
2023/04/13 08:20:32;;;;;;;5.70;2.80;;;;;;;;;;5090773;28;20541;-67
2023/04/13 08:23:00;;;;;;;3.88;2.70;;;;;;;;;;5074289;28;20044;-67
2023/04/13 08:25:28;;;;;;;3.75;2.85;;;;;;;;;;5074138;28;20484;-67
2023/04/13 08:27:55;;;;;;;3.72;2.85;;;;;;;;;;5074100;28;20043;-67
2023/04/13 08:30:23;;;;;;;5.28;3.15;;;;;;;;;;5074034;28;20098;-67
2023/04/13 08:32:59;;;;;;;3.30;2.70;;;;;;;;;;5076833;28;20131;-67
2023/04/13 08:35:27;;;;;;;4.25;3.08;;;;;;;;;;5111856;28;20127;-67
2023/04/13 08:37:57;;;;;;;3.33;2.65;;;;;;;;;;5077684;28;20036;-67
2023/04/13 08:40:24;;;;;;;2.85;2.60;;;;;;;;;;5111655;28;20048;-67
2023/04/13 08:42:55;;;;;;;3.20;2.85;;;;;;;;;;5077616;28;20040;-67
2023/04/13 08:45:23;;;;;;;4.97;3.53;;;;;;;;;;5077642;28;20048;-67
2023/04/13 08:47:51;;;;;;;4.10;3.10;;;;;;;;;;5095805;28;20059;-67
2023/04/13 08:50:22;;;;;;;6.57;2.80;;;;;;;;;;5077617;28;20036;-67
2023/04/13 08:52:55;;;;;;;5.32;2.63;;;;;;;;;;5077511;28;20052;-67
2023/04/13 08:55:25;;;;;;;4.03;2.80;;;;;;;;;;5111270;28;20052;-67
2023/04/13 08:57:56;;;;;;;4.75;2.72;;;;;;;;;;5077398;28;20044;-67
2023/04/13 09:00:25;;;;;;;11.88;3.10;;;;;;;;;;5111252;28;20044;-67
2023/04/13 09:02:57;;;;;;;4.90;2.90;;;;;;;;;;5095447;28;20070;-67
2023/04/13 09:05:38;;;;;;;3.72;2.85;;;;;;;;;;5077637;28;20454;-67
2023/04/13 09:08:06;;;;;;;2.80;2.60;;;;;;;;;;5111189;28;20520;-68
2023/04/13 09:10:37;;;;;;;5.65;2.78;;;;;;;;;;5077254;28;20391;-68
2023/04/13 09:13:07;;;;;;;4.50;2.80;;;;;;;;;;5111113;28;20067;-68
2023/04/13 09:15:36;;;;;;;5.30;2.53;;;;;;;;;;5093689;28;20104;-68
2023/04/13 09:18:11;;;;;;;;;;;;;;;;;;5077554;28;20044;-68
2023/04/13 09:20:54;;;;;;;3.42;2.53;;;;;;;;;;5094955;28;19955;-68
2023/04/13 09:23:22;;;;;;;2.67;2.40;;;;;;;;;;5095288;28;20040;-68
2023/04/13 09:25:49;;;;;;;3.55;2.70;;;;;;;;;;5076921;28;20456;-67
2023/04/13 09:28:18;;;;;;;4.95;2.40;;;;;;;;;;5095095;28;20043;-68
2023/04/13 09:30:45;;;;;;;3.25;2.22;;;;;;;;;;5110775;28;20075;-68
2023/04/13 09:33:14;;;;;;;3.65;2.58;;;;;;;;;;5095083;28;20047;-68
2023/04/13 09:35:42;;;;;;;5.00;2.30;;;;;;;;;;5094998;28;20040;-68
2023/04/13 09:38:14;;;;;;;3.13;2.40;;;;;;;;;;5094873;28;20055;-67
2023/04/13 09:40:53;;;;;;;2.85;2.20;;;;;;;;;;5110503;28;20040;-68
2023/04/13 09:43:20;;;;;;;2.40;2.13;;;;;;;;;;5094912;28;20447;-67
2023/04/13 09:45:48;;;;;;;3.42;2.08;;;;;;;;;;5094754;28;20089;-68
2023/04/13 09:48:20;;;;;;;2.70;2.20;;;;;;;;;;5110355;28;20082;-67
2023/04/13 09:51:05;;;;;;;3.40;2.30;;;;;;;;;;5094650;28;20468;-67
2023/04/13 09:53:47;;;;;;;2.40;2.20;;;;;;;;;;5094664;28;20042;-68
2023/04/13 09:56:15;;;;;;;3.88;2.17;;;;;;;;;;5094378;28;20040;-68
2023/04/13 09:58:44;;;;;;;3.33;2.72;;;;;;;;;;5094441;28;20047;-68
2023/04/13 10:01:14;;;;;;;2.33;2.10;;;;;;;;;;5094851;28;20048;-68
2023/04/13 10:03:42;;;;;;;2.67;1.90;;;;;;;;;;5094456;28;20060;-68
2023/04/13 10:06:09;;;;;;;4.15;2.00;;;;;;;;;;5094322;28;20447;-68
2023/04/13 10:08:37;;;;;;;3.53;2.05;;;;;;;;;;5094436;28;20510;-68
2023/04/13 10:11:14;;;;;;;6.35;2.25;;;;;;;;;;5094332;28;20044;-68
2023/04/13 10:14:01;;;;;;;6.20;2.10;;;;;;;;;;5094007;28;20115;-68
2023/04/13 10:16:44;;;;;;;5.00;2.00;;;;;;;;;;5110134;28;20392;-67
2023/04/13 10:19:11;;;;;;;2.20;2.00;;;;;;;;;;5094109;28;20098;-68
2023/04/13 10:21:40;;;;;;;4.13;2.00;;;;;;;;;;5094170;28;20032;-67
2023/04/13 10:24:11;;;;;;;3.53;1.98;;;;;;;;;;5094027;28;20075;-68
2023/04/13 10:26:40;;;;;;;4.57;1.92;;;;;;;;;;5094037;28;20115;-67
2023/04/13 10:29:10;;;;;;;3.90;2.10;;;;;;;;;;5093888;28;20547;-68
2023/04/13 10:31:38;;;;;;;2.30;2.10;;;;;;;;;;5094011;28;20059;-67
2023/04/13 10:34:06;;;;;;;4.85;2.05;;;;;;;;;;5093859;28;20047;-68
2023/04/13 10:36:41;;;;;;;4.35;1.70;;;;;;;;;;5094057;28;20040;-68
2023/04/13 10:39:10;;;;;;;3.78;2.03;;;;;;;;;;5109445;28;20058;-67
2023/04/13 10:41:37;;;;;;;2.10;1.90;;;;;;;;;;5093894;28;20386;-67
2023/04/13 10:44:06;;;;;;;3.88;1.80;;;;;;;;;;5075474;28;20048;-68
2023/04/13 10:46:34;;;;;;;1.80;1.70;;;;;;;;;;5093468;28;20493;-68
2023/04/13 10:49:03;;;;;;;1.88;1.40;;;;;;;;;;5093497;28;20042;-67
2023/04/13 10:51:43;;;;;;;3.13;1.70;;;;;;;;;;5093428;28;20046;-68
2023/04/13 10:54:12;;;;;;;3.88;1.40;;;;;;;;;;5093089;28;20410;-68
2023/04/13 10:56:39;;;;;;;4.60;2.08;;;;;;;;;;5093281;28;20498;-68
2023/04/13 10:59:07;;;;;;;3.47;2.60;;;;;;;;;;5093368;28;20044;-67
2023/04/13 11:01:35;;;;;;;6.75;5.15;;;;;;;;;;5093383;28;20036;-68
2023/04/13 11:04:03;;;;;;;5.00;3.00;;;;;;;;;;5093311;28;20552;-68
2023/04/13 11:06:37;;;;;;;3.53;2.08;;;;;;;;;;5093143;28;20150;-68
2023/04/13 11:09:05;;;;;;;2.72;2.13;;;;;;;;;;5093148;28;20405;-68
2023/04/13 11:11:36;;;;;;;5.22;2.30;;;;;;;;;;5093325;28;20044;-68
2023/04/13 11:14:04;;;;;;;2.92;1.70;;;;;;;;;;5093174;28;20248;-67
2023/04/13 11:16:31;;;;;;;3.67;1.83;;;;;;;;;;5093043;28;20044;-67
2023/04/13 11:19:03;;;;;;;2.40;1.70;;;;;;;;;;5075313;28;20047;-68
2023/04/13 11:21:30;;;;;;;2.92;1.70;;;;;;;;;;5093086;28;20046;-67
2023/04/13 11:24:01;;;;;;;2.85;1.60;;;;;;;;;;5093032;28;20036;-67
2023/04/13 11:26:36;;;;;;;3.85;1.90;;;;;;;;;;5093077;28;20046;-67
2023/04/13 11:29:05;;;;;;;5.28;2.00;;;;;;;;;;5108485;28;20040;-67
2023/04/13 11:31:39;;;;;;;4.90;1.80;;;;;;;;;;5092815;28;20069;-67
2023/04/13 11:34:08;;;;;;;3.78;1.50;;;;;;;;;;5092844;28;20048;-67
2023/04/13 11:36:38;;;;;;;3.65;1.73;;;;;;;;;;5093005;28;20139;-67
2023/04/13 11:39:11;;;;;;;2.33;1.40;;;;;;;;;;5092830;28;20405;-67
2023/04/13 11:41:39;;;;;;;2.15;1.70;;;;;;;;;;5092775;28;20036;-67
2023/04/13 11:44:06;;;;;;;3.60;2.40;;;;;;;;;;5092723;28;20089;-68
2023/04/13 11:46:34;;;;;;;2.50;1.85;;;;;;;;;;5092615;28;20040;-67
2023/04/13 11:49:02;;;;;;;3.20;2.05;;;;;;;;;;5092705;28;20071;-67
2023/04/13 11:51:31;;;;;;;5.82;2.40;;;;;;;;;;5092776;28;20082;-67
2023/04/13 11:53:58;;;;;;;2.33;2.13;;;;;;;;;;5074437;28;20118;-68
2023/04/13 11:56:26;;;;;;;3.72;1.98;;;;;;;;;;5092470;28;20123;-67
2023/04/13 11:58:54;;;;;;;3.88;1.70;;;;;;;;;;5092601;28;20040;-67
2023/04/13 12:01:21;;;;;;;2.25;1.70;;;;;;;;;;5092461;28;20055;-67
2023/04/13 12:04:04;;;;;;;1.88;1.67;;;;;;;;;;5108540;28;20409;-67
2023/04/13 12:06:43;;;;;;;3.42;1.60;;;;;;;;;;5107749;28;20116;-67
2023/04/13 12:09:12;;;;;;;2.45;1.65;;;;;;;;;;5096685;28;20105;-67
2023/04/13 12:11:48;;;;;;;4.63;2.35;;;;;;;;;;5096858;28;20040;-67
2023/04/13 12:14:31;;;;;;;8.13;2.03;;;;;;;;;;5096437;28;20048;-67
2023/04/13 12:17:18;;;;;;;4.00;1.60;;;;;;;;;;5095956;28;20074;-67
2023/04/13 12:20:08;;;;;;;3.03;1.55;;;;;;;;;;5077696;28;20044;-67
2023/04/13 12:22:37;;;;;;;1.80;1.52;;;;;;;;;;5112282;28;20420;-62
2023/04/13 12:25:21;;;;;;;2.80;1.80;;;;;;;;;;5096237;28;20038;-67
2023/04/13 12:27:52;;;;;;;2.13;1.70;;;;;;;;;;5096073;28;20040;-67
2023/04/13 12:30:21;;;;;;;2.83;1.55;;;;;;;;;;5098677;28;20040;-67
2023/04/13 12:32:52;;;;;;;1.90;1.73;;;;;;;;;;5101275;28;20413;-67
2023/04/13 12:35:20;;;;;;;2.83;1.85;;;;;;;;;;5095802;28;20036;-67
2023/04/13 12:37:49;;;;;;;1.73;1.48;;;;;;;;;;5104934;28;20104;-67
2023/04/13 12:40:17;;;;;;;2.45;1.85;;;;;;;;;;5098639;28;20044;-67
2023/04/13 12:42:46;;;;;;;2.30;1.80;;;;;;;;;;5096052;28;20055;-67
2023/04/13 12:45:14;;;;;;;2.17;1.73;;;;;;;;;;5096187;28;20105;-66
2023/04/13 12:47:41;;;;;;;4.20;1.60;;;;;;;;;;5095769;28;20040;-66
2023/04/13 12:50:10;;;;;;;8.00;2.00;;;;;;;;;;5101280;28;20081;-67
2023/04/13 12:52:39;;;;;;;2.95;1.90;;;;;;;;;;5113069;28;20043;-66
2023/04/13 12:55:07;;;;;;;1.30;1.20;;;;;;;;;;5115706;28;20058;-67
2023/04/13 12:57:35;;;;;;;1.60;1.50;;;;;;;;;;5116500;28;20043;-67
2023/04/13 13:00:08;;;;;;;1.80;1.70;;;;;;;;;;5116249;28;20070;-67
2023/04/13 13:02:36;;;;;;;3.58;2.05;;;;;;;;;;5097759;28;20054;-67
2023/04/13 13:05:04;;;;;;;2.63;1.50;;;;;;;;;;5115805;28;20046;-68
2023/04/13 13:07:31;;;;;;;2.28;2.00;;;;;;;;;;5115806;28;20046;-68
2023/04/13 13:10:00;;;;;;;2.50;1.73;;;;;;;;;;5097854;28;20097;-68
2023/04/13 13:12:29;;;;;;;2.45;1.80;;;;;;;;;;5116045;28;20043;-67
2023/04/13 13:14:57;;;;;;;4.93;1.50;;;;;;;;;;5115671;28;20135;-68
2023/04/13 13:17:25;;;;;;;1.45;1.30;;;;;;;;;;5115205;28;20492;-68
2023/04/13 13:19:53;;;;;;;1.58;1.48;;;;;;;;;;5115726;28;20085;-68
2023/04/13 13:22:21;;;;;;;2.67;2.05;;;;;;;;;;5115834;28;20039;-68
2023/04/13 13:24:48;;;;;;;2.03;1.73;;;;;;;;;;5115817;28;20056;-68
2023/04/13 13:27:16;;;;;;;2.92;1.63;;;;;;;;;;5097488;28;20035;-68
2023/04/13 13:29:47;;;;;;;2.80;1.52;;;;;;;;;;5115512;28;20031;-68
2023/04/13 13:32:18;;;;;;;2.55;1.50;;;;;;;;;;5080415;28;20175;-68
2023/04/13 13:35:01;;;;;;;2.60;2.10;;;;;;;;;;5115230;28;20085;-66
2023/04/13 13:37:28;;;;;;;5.50;2.10;;;;;;;;;;5115394;28;20063;-66
2023/04/13 13:39:56;;;;;;;6.30;1.70;;;;;;;;;;5115317;28;20039;-66
2023/04/13 13:42:24;;;;;;;10.02;2.25;;;;;;;;;;5114410;28;20118;-69
2023/04/13 13:44:51;;;;;;;4.20;1.50;;;;;;;;;;5097698;28;20053;-70
2023/04/13 13:47:19;;;;;;;2.33;1.65;;;;;;;;;;5115888;28;20122;-73
2023/04/13 13:49:50;;;;;;;2.88;1.20;;;;;;;;;;5097094;28;20039;-71
2023/04/13 13:52:50;;;;;;;2.78;1.58;;;;;;;;;;5100954;28;20196;-73
2023/04/13 13:55:32;;;;;;;1.60;1.50;;;;;;;;;;5076302;28;20040;-73
2023/04/13 13:58:00;;;;;;;4.13;1.52;;;;;;;;;;5103229;28;20035;-66
2023/04/13 14:00:27;;;;;;;5.00;1.50;;;;;;;;;;5114786;28;20508;-66
2023/04/13 14:02:55;;;;;;;4.00;1.70;;;;;;;;;;5114735;28;20051;-67
2023/04/13 14:05:23;;;;;;;3.13;2.10;;;;;;;;;;5114923;28;20047;-67
2023/04/13 14:07:50;;;;;;;2.67;1.90;;;;;;;;;;5114475;28;20114;-65
2023/04/13 14:10:18;;;;;;;4.60;3.38;;;;;;;;;;5114677;28;20036;-65
2023/04/13 14:12:46;;;;;;;1.75;1.60;;;;;;;;;;5114571;28;20046;-65
2023/04/13 14:15:17;;;;;;;4.78;1.80;;;;;;;;;;5114483;28;20079;-68
2023/04/13 14:17:46;;;;;;;4.30;1.90;;;;;;;;;;5114368;28;20093;-65
2023/04/13 14:20:28;;;;;;;4.15;2.50;;;;;;;;;;5114525;28;20054;-65
2023/04/13 14:22:56;;;;;;;3.92;2.08;;;;;;;;;;5114357;28;20096;-66
2023/04/13 14:25:24;;;;;;;4.28;1.73;;;;;;;;;;5113786;28;20146;-64
2023/04/13 14:27:51;;;;;;;4.93;1.90;;;;;;;;;;5100964;28;20097;-65
2023/04/13 14:30:21;;;;;;;1.77;1.65;;;;;;;;;;5096134;28;20070;-65
2023/04/13 14:32:50;;;;;;;2.28;1.70;;;;;;;;;;5101218;28;20115;-64
2023/04/13 14:35:18;;;;;;;2.30;2.05;;;;;;;;;;5107027;28;20040;-65
2023/04/13 14:37:46;;;;;;;3.10;1.45;;;;;;;;;;5106527;28;20574;-64
2023/04/13 14:40:15;;;;;;;6.53;2.85;;;;;;;;;;5107015;28;20043;-64
2023/04/13 14:42:45;;;;;;;5.03;1.88;;;;;;;;;;5097084;28;20051;-63
2023/04/13 14:45:13;;;;;;;4.13;1.80;;;;;;;;;;5097155;28;20115;-65
2023/04/13 14:47:40;;;;;;;4.15;2.00;;;;;;;;;;5113644;28;20039;-65
2023/04/13 14:50:08;;;;;;;5.15;2.05;;;;;;;;;;5113661;28;20039;-64
2023/04/13 14:52:36;;;;;;;2.72;1.73;;;;;;;;;;5110236;28;20044;-64
2023/04/13 14:55:04;;;;;;;2.97;1.83;;;;;;;;;;5097795;28;20032;-64
2023/04/13 14:57:32;;;;;;;3.65;1.80;;;;;;;;;;5093115;28;20485;-65
2023/04/13 14:59:59;;;;;;;2.63;1.50;;;;;;;;;;5077076;28;20040;-66
2023/04/13 15:02:27;;;;;;;2.78;1.63;;;;;;;;;;5092311;28;20058;-66
2023/04/13 15:04:56;;;;;;;4.45;1.48;;;;;;;;;;5073858;28;20127;-66
2023/04/13 15:07:27;;;;;;;3.40;1.77;;;;;;;;;;5091881;28;20047;-66
2023/04/13 15:09:56;;;;;;;2.40;1.58;;;;;;;;;;5092912;28;20043;-66
2023/04/13 15:12:24;;;;;;;4.60;3.15;;;;;;;;;;5093360;28;20040;-66
2023/04/13 15:14:51;;;;;;;2.72;1.60;;;;;;;;;;5093115;28;20050;-66
2023/04/13 15:17:19;;;;;;;2.95;1.70;;;;;;;;;;5092847;28;20044;-66
2023/04/13 15:19:47;;;;;;;18.40;2.40;;;;;;;;;;5093137;28;20521;-66
2023/04/13 15:22:15;;;;;;;25.17;2.72;;;;;;;;;;5074840;28;20040;-65
2023/04/13 15:24:42;;;;;;;5.88;2.00;;;;;;;;;;5075075;28;20543;-65
2023/04/13 15:27:10;;;;;;;5.30;2.80;;;;;;;;;;5092706;28;20107;-65
2023/04/13 15:29:37;;;;;;;2.70;1.60;;;;;;;;;;5094525;28;20126;-65
2023/04/13 15:32:05;;;;;;;2.60;1.33;;;;;;;;;;5100141;28;20070;-65
2023/04/13 15:34:32;;;;;;;3.35;1.67;;;;;;;;;;5096531;28;20048;-65
2023/04/13 15:37:00;;;;;;;3.92;1.98;;;;;;;;;;5112838;28;20496;-65
2023/04/13 15:39:27;;;;;;;4.00;2.03;;;;;;;;;;5098791;28;20131;-65
2023/04/13 15:41:56;;;;;;;3.67;1.95;;;;;;;;;;5112776;28;20035;-64
2023/04/13 15:44:24;;;;;;;4.15;1.38;;;;;;;;;;5112709;28;20067;-64
2023/04/13 15:46:51;;;;;;;2.17;1.50;;;;;;;;;;5084025;28;20067;-63
2023/04/13 15:49:19;;;;;;;1.83;1.40;;;;;;;;;;5109070;28;20071;-65
2023/04/13 15:51:46;;;;;;;3.47;2.30;;;;;;;;;;5094423;28;20044;-64
2023/04/13 15:54:13;;;;;;;4.32;2.10;;;;;;;;;;5112397;28;20467;-65
2023/04/13 15:56:43;;;;;;;3.10;2.50;;;;;;;;;;5112569;28;20043;-64
2023/04/13 15:59:10;;;;;;;3.15;2.00;;;;;;;;;;5112869;28;20044;-63
2023/04/13 16:01:47;;;;;;;3.45;1.88;;;;;;;;;;5112493;28;20044;-64
2023/04/13 16:04:15;;;;;;;3.85;1.80;;;;;;;;;;5098879;28;20043;-64
2023/04/13 16:06:43;;;;;;;4.28;2.35;;;;;;;;;;5108862;28;20047;-64
2023/04/13 16:09:11;;;;;;;4.60;1.80;;;;;;;;;;5096675;28;20039;-65